sensor_id;sensor_type;location;lat;lon;timestamp;pressure;altitude;pressure_sealevel;temperature;humidity
74270;BME280;62754;48.252;11.654;2023-06-10T00:01:27;95745.16;;;15.55;73.44
74270;BME280;62754;48.252;11.654;2023-06-10T00:03:55;95747.09;;;15.53;73.71
74270;BME280;62754;48.252;11.654;2023-06-10T00:06:21;95745.66;;;15.51;73.79
74270;BME280;62754;48.252;11.654;2023-06-10T00:08:47;95750.44;;;15.38;74.22
74270;BME280;62754;48.252;11.654;2023-06-10T00:11:15;95751.59;;;15.35;74.61
74270;BME280;62754;48.252;11.654;2023-06-10T00:13:41;95749.50;;;15.39;74.33
74270;BME280;62754;48.252;11.654;2023-06-10T00:16:09;95755.16;;;15.42;74.08
74270;BME280;62754;48.252;11.654;2023-06-10T00:18:37;95750.28;;;15.31;74.59
74270;BME280;62754;48.252;11.654;2023-06-10T00:21:05;95751.72;;;15.25;75.26
74270;BME280;62754;48.252;11.654;2023-06-10T00:23:31;95754.81;;;15.21;75.40
74270;BME280;62754;48.252;11.654;2023-06-10T00:26:02;95753.16;;;15.12;75.52
74270;BME280;62754;48.252;11.654;2023-06-10T00:28:31;95748.63;;;15.06;75.69
74270;BME280;62754;48.252;11.654;2023-06-10T00:31:01;95748.44;;;14.99;75.97
74270;BME280;62754;48.252;11.654;2023-06-10T00:33:27;95751.66;;;14.93;76.59
74270;BME280;62754;48.252;11.654;2023-06-10T00:35:55;95742.91;;;14.94;76.59
74270;BME280;62754;48.252;11.654;2023-06-10T00:38:20;95756.50;;;14.88;77.08
74270;BME280;62754;48.252;11.654;2023-06-10T00:40:49;95756.50;;;14.88;77.02
74270;BME280;62754;48.252;11.654;2023-06-10T00:43:16;95754.22;;;14.85;77.76
74270;BME280;62754;48.252;11.654;2023-06-10T00:45:42;95751.16;;;14.90;77.23
74270;BME280;62754;48.252;11.654;2023-06-10T00:48:08;95749.03;;;14.85;77.54
74270;BME280;62754;48.252;11.654;2023-06-10T00:50:38;95753.03;;;14.71;78.06
74270;BME280;62754;48.252;11.654;2023-06-10T00:53:10;95754.97;;;14.69;78.33
74270;BME280;62754;48.252;11.654;2023-06-10T00:55:37;95757.13;;;14.74;78.30
74270;BME280;62754;48.252;11.654;2023-06-10T00:58:03;95756.41;;;14.64;78.63
74270;BME280;62754;48.252;11.654;2023-06-10T01:00:29;95756.69;;;14.53;79.24
74270;BME280;62754;48.252;11.654;2023-06-10T01:02:54;95751.94;;;14.48;79.98
74270;BME280;62754;48.252;11.654;2023-06-10T01:05:25;95748.84;;;14.45;80.03
74270;BME280;62754;48.252;11.654;2023-06-10T01:10:33;95752.22;;;14.37;80.53
74270;BME280;62754;48.252;11.654;2023-06-10T01:13:03;95750.88;;;14.33;80.31
74270;BME280;62754;48.252;11.654;2023-06-10T01:15:31;95746.50;;;14.33;80.55
74270;BME280;62754;48.252;11.654;2023-06-10T01:18:08;95743.41;;;14.30;80.83
74270;BME280;62754;48.252;11.654;2023-06-10T01:20:37;95752.63;;;14.24;81.07
74270;BME280;62754;48.252;11.654;2023-06-10T01:23:05;95757.44;;;14.19;81.48
74270;BME280;62754;48.252;11.654;2023-06-10T01:25:40;95753.41;;;14.17;81.44
74270;BME280;62754;48.252;11.654;2023-06-10T01:28:31;95750.59;;;14.10;81.87
74270;BME280;62754;48.252;11.654;2023-06-10T01:33:46;95755.75;;;14.10;82.11
74270;BME280;62754;48.252;11.654;2023-06-10T01:36:15;95754.00;;;14.11;82.28
74270;BME280;62754;48.252;11.654;2023-06-10T01:38:46;95750.59;;;14.10;82.72
74270;BME280;62754;48.252;11.654;2023-06-10T01:41:17;95756.00;;;14.17;82.35
74270;BME280;62754;48.252;11.654;2023-06-10T01:43:46;95752.22;;;14.11;82.58
74270;BME280;62754;48.252;11.654;2023-06-10T01:46:16;95751.72;;;14.08;82.74
74270;BME280;62754;48.252;11.654;2023-06-10T01:48:42;95758.16;;;14.04;83.27
74270;BME280;62754;48.252;11.654;2023-06-10T01:51:10;95744.69;;;14.00;83.55
74270;BME280;62754;48.252;11.654;2023-06-10T01:53:36;95757.16;;;13.97;83.80
74270;BME280;62754;48.252;11.654;2023-06-10T01:56:04;95751.28;;;13.95;83.96
74270;BME280;62754;48.252;11.654;2023-06-10T01:58:32;95748.19;;;13.91;84.15
74270;BME280;62754;48.252;11.654;2023-06-10T02:00:58;95755.31;;;13.89;84.55
74270;BME280;62754;48.252;11.654;2023-06-10T02:03:24;95758.56;;;13.91;84.50
74270;BME280;62754;48.252;11.654;2023-06-10T02:05:52;95751.09;;;13.88;84.87
74270;BME280;62754;48.252;11.654;2023-06-10T02:08:18;95753.81;;;13.87;84.67
74270;BME280;62754;48.252;11.654;2023-06-10T02:10:43;95761.06;;;13.83;84.80
74270;BME280;62754;48.252;11.654;2023-06-10T02:13:11;95748.75;;;13.77;85.08
74270;BME280;62754;48.252;11.654;2023-06-10T02:15:37;95756.22;;;13.80;85.18
74270;BME280;62754;48.252;11.654;2023-06-10T02:18:03;95759.09;;;13.77;85.42
74270;BME280;62754;48.252;11.654;2023-06-10T02:20:29;95752.91;;;13.70;85.42
74270;BME280;62754;48.252;11.654;2023-06-10T02:22:58;95762.59;;;13.68;86.12
74270;BME280;62754;48.252;11.654;2023-06-10T02:25:26;95755.44;;;13.62;86.36
74270;BME280;62754;48.252;11.654;2023-06-10T02:27:52;95755.13;;;13.65;86.65
74270;BME280;62754;48.252;11.654;2023-06-10T02:30:21;95765.78;;;13.62;87.03
74270;BME280;62754;48.252;11.654;2023-06-10T02:32:49;95772.03;;;13.59;87.06
74270;BME280;62754;48.252;11.654;2023-06-10T02:35:17;95770.88;;;13.54;87.79
74270;BME280;62754;48.252;11.654;2023-06-10T02:37:43;95768.81;;;13.57;87.46
74270;BME280;62754;48.252;11.654;2023-06-10T02:40:09;95768.16;;;13.55;87.78
74270;BME280;62754;48.252;11.654;2023-06-10T02:42:38;95762.50;;;13.60;87.60
74270;BME280;62754;48.252;11.654;2023-06-10T02:45:06;95762.59;;;13.50;88.08
74270;BME280;62754;48.252;11.654;2023-06-10T02:47:34;95762.31;;;13.53;87.88
74270;BME280;62754;48.252;11.654;2023-06-10T02:50:03;95761.19;;;13.56;87.94
74270;BME280;62754;48.252;11.654;2023-06-10T02:52:31;95772.34;;;13.56;87.98
74270;BME280;62754;48.252;11.654;2023-06-10T02:54:56;95768.94;;;13.56;87.87
74270;BME280;62754;48.252;11.654;2023-06-10T02:57:24;95775.25;;;13.53;88.35
74270;BME280;62754;48.252;11.654;2023-06-10T02:59:50;95770.75;;;13.55;88.61
74270;BME280;62754;48.252;11.654;2023-06-10T03:02:18;95768.00;;;13.57;88.51
74270;BME280;62754;48.252;11.654;2023-06-10T03:04:46;95776.66;;;13.65;88.09
74270;BME280;62754;48.252;11.654;2023-06-10T03:07:11;95784.22;;;13.59;88.44
74270;BME280;62754;48.252;11.654;2023-06-10T03:09:42;95779.97;;;13.58;88.54
74270;BME280;62754;48.252;11.654;2023-06-10T03:12:13;95779.97;;;13.58;89.03
74270;BME280;62754;48.252;11.654;2023-06-10T03:14:39;95790.84;;;13.61;88.79
74270;BME280;62754;48.252;11.654;2023-06-10T03:17:05;95787.00;;;13.65;88.96
74270;BME280;62754;48.252;11.654;2023-06-10T03:19:35;95790.72;;;13.63;88.73
74270;BME280;62754;48.252;11.654;2023-06-10T03:22:14;95783.91;;;13.62;89.01
74270;BME280;62754;48.252;11.654;2023-06-10T03:24:40;95784.56;;;13.64;89.11
74270;BME280;62754;48.252;11.654;2023-06-10T03:27:12;95791.22;;;13.66;89.27
74270;BME280;62754;48.252;11.654;2023-06-10T03:29:38;95791.28;;;13.57;89.79
74270;BME280;62754;48.252;11.654;2023-06-10T03:32:04;95791.28;;;13.57;90.12
74270;BME280;62754;48.252;11.654;2023-06-10T03:34:32;95795.72;;;13.64;89.60
74270;BME280;62754;48.252;11.654;2023-06-10T03:36:58;95795.72;;;13.64;89.85
74270;BME280;62754;48.252;11.654;2023-06-10T03:39:24;95792.69;;;13.69;90.10
74270;BME280;62754;48.252;11.654;2023-06-10T03:41:50;95795.59;;;13.66;90.53
74270;BME280;62754;48.252;11.654;2023-06-10T03:44:16;95790.47;;;13.74;90.25
74270;BME280;62754;48.252;11.654;2023-06-10T03:46:42;95800.91;;;13.82;90.03
74270;BME280;62754;48.252;11.654;2023-06-10T03:49:10;95806.94;;;13.91;89.61
74270;BME280;62754;48.252;11.654;2023-06-10T03:51:36;95803.69;;;13.89;89.73
74270;BME280;62754;48.252;11.654;2023-06-10T03:54:01;95803.19;;;13.85;89.87
74270;BME280;62754;48.252;11.654;2023-06-10T03:56:27;95807.56;;;13.84;89.94
74270;BME280;62754;48.252;11.654;2023-06-10T03:58:55;95809.31;;;13.84;90.17
74270;BME280;62754;48.252;11.654;2023-06-10T04:01:23;95816.03;;;13.95;89.73
74270;BME280;62754;48.252;11.654;2023-06-10T04:03:49;95809.09;;;13.95;89.32
74270;BME280;62754;48.252;11.654;2023-06-10T04:06:15;95826.31;;;14.04;89.44
74270;BME280;62754;48.252;11.654;2023-06-10T04:08:41;95812.13;;;14.08;89.19
74270;BME280;62754;48.252;11.654;2023-06-10T04:11:07;95818.13;;;14.09;89.14
74270;BME280;62754;48.252;11.654;2023-06-10T04:13:33;95816.09;;;14.20;88.48
74270;BME280;62754;48.252;11.654;2023-06-10T04:16:01;95820.47;;;14.20;88.91
74270;BME280;62754;48.252;11.654;2023-06-10T04:18:26;95825.47;;;14.21;88.63
74270;BME280;62754;48.252;11.654;2023-06-10T04:20:52;95832.03;;;14.33;88.45
74270;BME280;62754;48.252;11.654;2023-06-10T04:23:18;95819.06;;;14.33;88.36
74270;BME280;62754;48.252;11.654;2023-06-10T04:25:46;95813.63;;;14.37;88.13
74270;BME280;62754;48.252;11.654;2023-06-10T04:28:14;95823.28;;;14.52;87.43
74270;BME280;62754;48.252;11.654;2023-06-10T04:30:44;95817.50;;;14.58;87.18
74270;BME280;62754;48.252;11.654;2023-06-10T04:33:13;95819.41;;;14.56;87.23
74270;BME280;62754;48.252;11.654;2023-06-10T04:35:38;95831.66;;;14.72;86.82
74270;BME280;62754;48.252;11.654;2023-06-10T04:38:04;95828.63;;;14.85;86.14
74270;BME280;62754;48.252;11.654;2023-06-10T04:40:30;95833.50;;;14.88;86.00
74270;BME280;62754;48.252;11.654;2023-06-10T04:42:58;95832.13;;;15.01;85.84
74270;BME280;62754;48.252;11.654;2023-06-10T04:45:23;95837.03;;;15.12;84.59
74270;BME280;62754;48.252;11.654;2023-06-10T04:47:52;95841.09;;;15.15;84.36
74270;BME280;62754;48.252;11.654;2023-06-10T04:50:18;95838.03;;;15.19;84.02
74270;BME280;62754;48.252;11.654;2023-06-10T04:52:46;95842.56;;;15.25;83.92
74270;BME280;62754;48.252;11.654;2023-06-10T04:55:12;95843.09;;;15.29;83.72
74270;BME280;62754;48.252;11.654;2023-06-10T04:57:40;95833.69;;;15.36;83.67
74270;BME280;62754;48.252;11.654;2023-06-10T05:00:09;95839.88;;;15.43;83.54
74270;BME280;62754;48.252;11.654;2023-06-10T05:02:37;95837.63;;;15.48;83.33
74270;BME280;62754;48.252;11.654;2023-06-10T05:05:03;95838.97;;;15.60;82.96
74270;BME280;62754;48.252;11.654;2023-06-10T05:07:31;95838.00;;;15.61;82.75
74270;BME280;62754;48.252;11.654;2023-06-10T05:09:59;95840.59;;;15.61;82.94
74270;BME280;62754;48.252;11.654;2023-06-10T05:12:25;95844.16;;;15.68;82.80
74270;BME280;62754;48.252;11.654;2023-06-10T05:14:50;95830.38;;;15.76;82.24
74270;BME280;62754;48.252;11.654;2023-06-10T05:17:18;95839.81;;;15.85;82.24
74270;BME280;62754;48.252;11.654;2023-06-10T05:19:48;95845.84;;;15.94;82.11
74270;BME280;62754;48.252;11.654;2023-06-10T05:22:16;95843.88;;;15.96;82.27
74270;BME280;62754;48.252;11.654;2023-06-10T05:24:44;95849.41;;;16.09;81.83
74270;BME280;62754;48.252;11.654;2023-06-10T05:27:12;95847.13;;;16.22;81.23
74270;BME280;62754;48.252;11.654;2023-06-10T05:29:38;95852.16;;;16.24;81.14
74270;BME280;62754;48.252;11.654;2023-06-10T05:32:04;95847.94;;;16.39;80.92
74270;BME280;62754;48.252;11.654;2023-06-10T05:34:30;95850.66;;;16.53;80.29
74270;BME280;62754;48.252;11.654;2023-06-10T05:36:59;95851.34;;;16.55;80.07
74270;BME280;62754;48.252;11.654;2023-06-10T05:39:27;95851.66;;;16.52;80.26
74270;BME280;62754;48.252;11.654;2023-06-10T05:41:55;95855.91;;;16.61;79.68
74270;BME280;62754;48.252;11.654;2023-06-10T05:44:20;95857.03;;;16.67;79.36
74270;BME280;62754;48.252;11.654;2023-06-10T05:46:46;95859.94;;;16.72;79.94
74270;BME280;62754;48.252;11.654;2023-06-10T05:49:14;95853.09;;;16.79;79.29
74270;BME280;62754;48.252;11.654;2023-06-10T05:51:40;95856.78;;;16.93;79.57
74270;BME280;62754;48.252;11.654;2023-06-10T05:54:05;95851.63;;;16.85;79.23
74270;BME280;62754;48.252;11.654;2023-06-10T05:56:34;95855.16;;;16.92;79.08
74270;BME280;62754;48.252;11.654;2023-06-10T05:59:04;95851.09;;;16.97;79.26
74270;BME280;62754;48.252;11.654;2023-06-10T06:01:30;95845.75;;;16.91;79.69
74270;BME280;62754;48.252;11.654;2023-06-10T06:03:58;95848.66;;;16.88;80.11
74270;BME280;62754;48.252;11.654;2023-06-10T06:06:26;95847.75;;;16.73;80.00
74270;BME280;62754;48.252;11.654;2023-06-10T06:08:51;95849.47;;;16.96;79.47
74270;BME280;62754;48.252;11.654;2023-06-10T06:11:19;95849.28;;;17.06;79.22
74270;BME280;62754;48.252;11.654;2023-06-10T06:13:47;95851.97;;;17.29;78.50
74270;BME280;62754;48.252;11.654;2023-06-10T06:16:13;95850.56;;;17.57;78.01
74270;BME280;62754;48.252;11.654;2023-06-10T06:18:39;95848.22;;;17.62;76.75
74270;BME280;62754;48.252;11.654;2023-06-10T06:21:07;95859.16;;;17.80;76.55
74270;BME280;62754;48.252;11.654;2023-06-10T06:23:33;95851.31;;;17.88;75.73
74270;BME280;62754;48.252;11.654;2023-06-10T06:26:01;95852.13;;;18.12;75.23
74270;BME280;62754;48.252;11.654;2023-06-10T06:28:26;95851.00;;;18.29;74.56
74270;BME280;62754;48.252;11.654;2023-06-10T06:30:52;95855.13;;;18.23;74.00
74270;BME280;62754;48.252;11.654;2023-06-10T06:33:18;95850.06;;;18.44;73.74
74270;BME280;62754;48.252;11.654;2023-06-10T06:35:44;95849.50;;;18.57;72.50
74270;BME280;62754;48.252;11.654;2023-06-10T06:38:11;95857.69;;;18.46;72.50
74270;BME280;62754;48.252;11.654;2023-06-10T06:40:37;95848.69;;;18.71;72.39
74270;BME280;62754;48.252;11.654;2023-06-10T06:43:08;95850.13;;;18.88;71.74
74270;BME280;62754;48.252;11.654;2023-06-10T06:45:33;95851.22;;;18.79;70.76
74270;BME280;62754;48.252;11.654;2023-06-10T06:47:59;95855.63;;;18.93;70.44
74270;BME280;62754;48.252;11.654;2023-06-10T06:50:25;95857.53;;;19.14;70.60
74270;BME280;62754;48.252;11.654;2023-06-10T06:52:51;95860.75;;;19.16;69.14
74270;BME280;62754;48.252;11.654;2023-06-10T06:55:17;95871.09;;;19.39;69.12
74270;BME280;62754;48.252;11.654;2023-06-10T06:57:45;95871.34;;;19.59;68.56
74270;BME280;62754;48.252;11.654;2023-06-10T07:00:10;95869.75;;;19.58;67.49
74270;BME280;62754;48.252;11.654;2023-06-10T07:02:36;95863.19;;;19.83;67.87
74270;BME280;62754;48.252;11.654;2023-06-10T07:05:02;95866.41;;;19.85;67.27
74270;BME280;62754;48.252;11.654;2023-06-10T07:07:28;95880.41;;;19.77;67.10
74270;BME280;62754;48.252;11.654;2023-06-10T07:09:54;95869.34;;;19.96;67.02
74270;BME280;62754;48.252;11.654;2023-06-10T07:12:22;95866.00;;;20.24;66.39
74270;BME280;62754;48.252;11.654;2023-06-10T07:14:48;95869.75;;;20.36;65.60
74270;BME280;62754;48.252;11.654;2023-06-10T07:17:14;95872.69;;;20.48;65.51
74270;BME280;62754;48.252;11.654;2023-06-10T07:19:40;95877.06;;;20.68;65.01
74270;BME280;62754;48.252;11.654;2023-06-10T07:22:05;95876.53;;;20.52;64.55
74270;BME280;62754;48.252;11.654;2023-06-10T07:24:33;95882.97;;;20.49;64.59
74270;BME280;62754;48.252;11.654;2023-06-10T07:27:01;95878.19;;;20.59;63.30
74270;BME280;62754;48.252;11.654;2023-06-10T07:29:29;95874.75;;;20.80;62.49
74270;BME280;62754;48.252;11.654;2023-06-10T07:31:57;95877.94;;;20.75;63.12
74270;BME280;62754;48.252;11.654;2023-06-10T07:34:25;95872.94;;;20.80;61.87
74270;BME280;62754;48.252;11.654;2023-06-10T07:36:51;95872.78;;;20.88;61.73
74270;BME280;62754;48.252;11.654;2023-06-10T07:39:16;95872.19;;;20.93;61.39
74270;BME280;62754;48.252;11.654;2023-06-10T07:41:42;95874.31;;;21.04;60.94
74270;BME280;62754;48.252;11.654;2023-06-10T07:44:10;95877.28;;;21.29;61.76
74270;BME280;62754;48.252;11.654;2023-06-10T07:46:38;95870.50;;;21.48;61.26
74270;BME280;62754;48.252;11.654;2023-06-10T07:49:04;95866.31;;;21.60;59.58
74270;BME280;62754;48.252;11.654;2023-06-10T07:51:32;95870.75;;;21.59;61.08
74270;BME280;62754;48.252;11.654;2023-06-10T07:53:57;95876.28;;;21.84;60.30
74270;BME280;62754;48.252;11.654;2023-06-10T07:56:23;95874.94;;;22.01;58.34
74270;BME280;62754;48.252;11.654;2023-06-10T07:58:52;95874.78;;;22.29;59.16
74270;BME280;62754;48.252;11.654;2023-06-10T08:01:18;95873.56;;;22.12;56.67
74270;BME280;62754;48.252;11.654;2023-06-10T08:03:43;95872.97;;;22.23;58.11
74270;BME280;62754;48.252;11.654;2023-06-10T08:06:09;95876.22;;;22.31;55.41
74270;BME280;62754;48.252;11.654;2023-06-10T08:08:37;95872.38;;;22.41;55.22
74270;BME280;62754;48.252;11.654;2023-06-10T08:11:03;95868.34;;;22.58;56.93
74270;BME280;62754;48.252;11.654;2023-06-10T08:13:30;95872.81;;;22.77;56.33
74270;BME280;62754;48.252;11.654;2023-06-10T08:16:02;95873.41;;;22.40;56.56
74270;BME280;62754;48.252;11.654;2023-06-10T08:18:28;95879.63;;;22.32;56.84
74270;BME280;62754;48.252;11.654;2023-06-10T08:20:54;95880.84;;;22.23;57.17
74270;BME280;62754;48.252;11.654;2023-06-10T08:23:20;95882.31;;;22.78;56.08
74270;BME280;62754;48.252;11.654;2023-06-10T08:25:47;95878.25;;;22.89;54.25
74270;BME280;62754;48.252;11.654;2023-06-10T08:28:16;95882.28;;;22.52;54.71
74270;BME280;62754;48.252;11.654;2023-06-10T08:30:41;95888.91;;;23.26;54.22
74270;BME280;62754;48.252;11.654;2023-06-10T08:33:07;95883.69;;;23.07;52.97
74270;BME280;62754;48.252;11.654;2023-06-10T08:35:33;95884.34;;;22.69;54.54
74270;BME280;62754;48.252;11.654;2023-06-10T08:37:59;95883.50;;;22.49;54.65
74270;BME280;62754;48.252;11.654;2023-06-10T08:40:25;95886.13;;;22.62;53.99
74270;BME280;62754;48.252;11.654;2023-06-10T08:43:06;95883.44;;;22.10;54.98
74270;BME280;62754;48.252;11.654;2023-06-10T08:45:36;95870.97;;;21.64;56.56
74270;BME280;62754;48.252;11.654;2023-06-10T08:48:05;95882.25;;;21.58;57.80
74270;BME280;62754;48.252;11.654;2023-06-10T08:50:36;95876.81;;;22.27;57.05
74270;BME280;62754;48.252;11.654;2023-06-10T08:53:05;95877.63;;;22.54;54.79
74270;BME280;62754;48.252;11.654;2023-06-10T08:55:40;95884.69;;;22.20;56.35
74270;BME280;62754;48.252;11.654;2023-06-10T08:58:09;95883.19;;;21.92;57.36
74270;BME280;62754;48.252;11.654;2023-06-10T09:00:36;95878.41;;;22.15;57.09
74270;BME280;62754;48.252;11.654;2023-06-10T09:03:03;95875.63;;;22.75;54.88
74270;BME280;62754;48.252;11.654;2023-06-10T09:05:33;95872.88;;;23.41;53.08
74270;BME280;62754;48.252;11.654;2023-06-10T09:08:02;95875.91;;;23.96;51.46
74270;BME280;62754;48.252;11.654;2023-06-10T09:10:28;95873.50;;;24.32;49.48
74270;BME280;62754;48.252;11.654;2023-06-10T09:12:57;95870.75;;;24.70;48.16
74270;BME280;62754;48.252;11.654;2023-06-10T09:15:28;95874.34;;;24.76;49.04
74270;BME280;62754;48.252;11.654;2023-06-10T09:17:54;95876.91;;;24.01;49.54
74270;BME280;62754;48.252;11.654;2023-06-10T09:20:20;95874.25;;;24.39;48.85
74270;BME280;62754;48.252;11.654;2023-06-10T09:22:49;95870.34;;;25.34;47.24
74270;BME280;62754;48.252;11.654;2023-06-10T09:25:14;95877.66;;;25.14;46.47
74270;BME280;62754;48.252;11.654;2023-06-10T09:27:50;95878.75;;;24.32;48.43
74270;BME280;62754;48.252;11.654;2023-06-10T09:30:26;95875.84;;;23.64;49.87
74270;BME280;62754;48.252;11.654;2023-06-10T09:32:57;95872.31;;;23.26;50.65
74270;BME280;62754;48.252;11.654;2023-06-10T09:35:23;95870.84;;;24.57;48.17
74270;BME280;62754;48.252;11.654;2023-06-10T09:37:54;95870.94;;;25.73;46.89
74270;BME280;62754;48.252;11.654;2023-06-10T09:40:22;95867.91;;;26.47;44.70
74270;BME280;62754;48.252;11.654;2023-06-10T09:42:54;95872.34;;;26.05;43.62
74270;BME280;62754;48.252;11.654;2023-06-10T09:45:19;95875.53;;;25.04;44.87
74270;BME280;62754;48.252;11.654;2023-06-10T09:47:46;95877.16;;;25.05;45.47
74270;BME280;62754;48.252;11.654;2023-06-10T09:50:20;95880.06;;;24.48;46.85
74270;BME280;62754;48.252;11.654;2023-06-10T09:52:46;95874.78;;;24.73;48.65
74270;BME280;62754;48.252;11.654;2023-06-10T09:55:14;95872.41;;;24.08;48.68
74270;BME280;62754;48.252;11.654;2023-06-10T09:57:43;95875.84;;;23.71;50.28
74270;BME280;62754;48.252;11.654;2023-06-10T10:00:14;95881.41;;;23.88;49.45
74270;BME280;62754;48.252;11.654;2023-06-10T10:05:16;95879.00;;;26.07;42.57
74270;BME280;62754;48.252;11.654;2023-06-10T10:07:45;95874.03;;;25.70;43.56
74270;BME280;62754;48.252;11.654;2023-06-10T10:10:12;95873.31;;;26.52;42.18
74270;BME280;62754;48.252;11.654;2023-06-10T10:12:39;95874.03;;;26.82;43.13
74270;BME280;62754;48.252;11.654;2023-06-10T10:15:07;95874.50;;;26.79;43.23
74270;BME280;62754;48.252;11.654;2023-06-10T10:17:36;95870.78;;;25.49;44.42
74270;BME280;62754;48.252;11.654;2023-06-10T10:20:05;95881.13;;;26.59;42.72
74270;BME280;62754;48.252;11.654;2023-06-10T10:22:35;95876.78;;;26.52;41.66
74270;BME280;62754;48.252;11.654;2023-06-10T10:25:16;95877.53;;;26.94;40.75
74270;BME280;62754;48.252;11.654;2023-06-10T10:27:51;95884.78;;;26.99;40.00
74270;BME280;62754;48.252;11.654;2023-06-10T10:30:20;95879.47;;;27.22;38.40
74270;BME280;62754;48.252;11.654;2023-06-10T10:33:09;95880.38;;;26.28;40.25
74270;BME280;62754;48.252;11.654;2023-06-10T10:35:38;95874.56;;;26.49;40.07
74270;BME280;62754;48.252;11.654;2023-06-10T10:38:04;95876.72;;;26.29;39.83
74270;BME280;62754;48.252;11.654;2023-06-10T10:40:34;95867.59;;;26.78;38.68
74270;BME280;62754;48.252;11.654;2023-06-10T10:43:00;95868.09;;;26.04;40.31
74270;BME280;62754;48.252;11.654;2023-06-10T10:45:29;95862.78;;;26.75;39.07
74270;BME280;62754;48.252;11.654;2023-06-10T10:47:55;95865.19;;;27.46;37.89
74270;BME280;62754;48.252;11.654;2023-06-10T10:50:24;95863.44;;;27.40;37.43
74270;BME280;62754;48.252;11.654;2023-06-10T10:55:19;95872.34;;;29.48;35.64
74270;BME280;62754;48.252;11.654;2023-06-10T10:57:55;95869.41;;;28.72;37.54
74270;BME280;62754;48.252;11.654;2023-06-10T11:00:29;95863.63;;;28.92;36.74
74270;BME280;62754;48.252;11.654;2023-06-10T11:03:06;95864.81;;;29.83;36.55
74270;BME280;62754;48.252;11.654;2023-06-10T11:05:45;95856.25;;;29.76;35.87
74270;BME280;62754;48.252;11.654;2023-06-10T11:08:11;95868.38;;;29.12;37.11
74270;BME280;62754;48.252;11.654;2023-06-10T11:10:39;95857.44;;;29.42;36.80
74270;BME280;62754;48.252;11.654;2023-06-10T11:13:09;95850.81;;;29.44;36.64
74270;BME280;62754;48.252;11.654;2023-06-10T11:15:44;95854.16;;;30.00;36.28
74270;BME280;62754;48.252;11.654;2023-06-10T11:28:39;95860.16;;;28.92;37.53
74270;BME280;62754;48.252;11.654;2023-06-10T11:31:05;95859.88;;;28.60;37.40
74270;BME280;62754;48.252;11.654;2023-06-10T11:33:31;95849.56;;;29.52;36.82
74270;BME280;62754;48.252;11.654;2023-06-10T11:35:57;95860.81;;;27.92;38.49
74270;BME280;62754;48.252;11.654;2023-06-10T11:38:24;95846.31;;;28.90;36.73
74270;BME280;62754;48.252;11.654;2023-06-10T11:40:52;95850.25;;;29.64;36.01
74270;BME280;62754;48.252;11.654;2023-06-10T11:43:18;95845.03;;;30.44;34.82
74270;BME280;62754;48.252;11.654;2023-06-10T11:45:44;95847.78;;;30.91;33.52
74270;BME280;62754;48.252;11.654;2023-06-10T11:48:14;95837.00;;;31.55;32.35
74270;BME280;62754;48.252;11.654;2023-06-10T11:50:40;95842.47;;;30.91;32.05
74270;BME280;62754;48.252;11.654;2023-06-10T11:53:08;95849.06;;;28.78;36.46
74270;BME280;62754;48.252;11.654;2023-06-10T11:55:47;95848.56;;;27.63;39.81
74270;BME280;62754;48.252;11.654;2023-06-10T11:58:13;95839.31;;;26.67;38.59
74270;BME280;62754;48.252;11.654;2023-06-10T12:00:45;95837.91;;;26.12;40.90
74270;BME280;62754;48.252;11.654;2023-06-10T12:03:11;95837.44;;;27.61;38.14
74270;BME280;62754;48.252;11.654;2023-06-10T12:05:37;95835.56;;;28.79;35.51
74270;BME280;62754;48.252;11.654;2023-06-10T12:08:14;95829.16;;;27.45;38.40
74270;BME280;62754;48.252;11.654;2023-06-10T12:10:43;95824.00;;;26.58;40.62
74270;BME280;62754;48.252;11.654;2023-06-10T12:13:09;95838.03;;;27.51;38.19
74270;BME280;62754;48.252;11.654;2023-06-10T12:15:35;95828.97;;;26.66;39.70
74270;BME280;62754;48.252;11.654;2023-06-10T12:18:01;95834.94;;;29.27;35.06
74270;BME280;62754;48.252;11.654;2023-06-10T12:20:29;95823.25;;;30.20;32.40
74270;BME280;62754;48.252;11.654;2023-06-10T12:22:57;95824.78;;;30.11;33.82
74270;BME280;62754;48.252;11.654;2023-06-10T12:25:28;95827.97;;;30.13;32.31
74270;BME280;62754;48.252;11.654;2023-06-10T12:27:57;95823.59;;;31.45;30.84
74270;BME280;62754;48.252;11.654;2023-06-10T12:30:24;95824.00;;;31.16;31.17
74270;BME280;62754;48.252;11.654;2023-06-10T12:32:51;95823.38;;;30.04;34.49
74270;BME280;62754;48.252;11.654;2023-06-10T12:35:18;95822.94;;;31.17;34.96
74270;BME280;62754;48.252;11.654;2023-06-10T12:37:59;95829.91;;;31.91;31.66
74270;BME280;62754;48.252;11.654;2023-06-10T12:40:29;95828.16;;;32.17;31.60
74270;BME280;62754;48.252;11.654;2023-06-10T12:42:57;95819.41;;;31.54;32.23
74270;BME280;62754;48.252;11.654;2023-06-10T12:48:04;95821.84;;;31.65;32.37
74270;BME280;62754;48.252;11.654;2023-06-10T12:50:32;95811.66;;;31.47;32.88
74270;BME280;62754;48.252;11.654;2023-06-10T12:53:03;95821.78;;;30.98;32.65
74270;BME280;62754;48.252;11.654;2023-06-10T12:55:31;95824.16;;;31.47;31.58
74270;BME280;62754;48.252;11.654;2023-06-10T12:57:57;95823.19;;;31.11;31.83
74270;BME280;62754;48.252;11.654;2023-06-10T13:00:23;95827.28;;;32.01;30.84
74270;BME280;62754;48.252;11.654;2023-06-10T13:02:49;95827.31;;;31.44;31.75
74270;BME280;62754;48.252;11.654;2023-06-10T13:05:15;95820.53;;;31.68;32.27
74270;BME280;62754;48.252;11.654;2023-06-10T13:07:43;95819.88;;;32.48;29.70
74270;BME280;62754;48.252;11.654;2023-06-10T13:10:15;95821.84;;;29.64;33.99
74270;BME280;62754;48.252;11.654;2023-06-10T13:12:41;95832.75;;;28.69;36.95
74270;BME280;62754;48.252;11.654;2023-06-10T13:15:09;95824.97;;;27.61;38.32
74270;BME280;62754;48.252;11.654;2023-06-10T13:17:40;95823.81;;;27.06;40.56